sensor_id;sensor_type;location;lat;lon;timestamp;temperature;humidity
10282;DHT22;5186;59.472;18.048;2023-10-13T00:00:33;8.00;99.90
10282;DHT22;5186;59.472;18.048;2023-10-13T00:03:05;8.00;99.90
10282;DHT22;5186;59.472;18.048;2023-10-13T00:05:32;7.90;99.90
10282;DHT22;5186;59.472;18.048;2023-10-13T00:08:02;7.80;99.90
10282;DHT22;5186;59.472;18.048;2023-10-13T00:10:29;7.90;99.90
10282;DHT22;5186;59.472;18.048;2023-10-13T00:12:55;7.80;99.90
10282;DHT22;5186;59.472;18.048;2023-10-13T00:15:31;7.90;99.90
10282;DHT22;5186;59.472;18.048;2023-10-13T00:18:05;7.90;99.90
10282;DHT22;5186;59.472;18.048;2023-10-13T00:20:41;7.80;99.90
10282;DHT22;5186;59.472;18.048;2023-10-13T00:23:13;7.90;99.90
10282;DHT22;5186;59.472;18.048;2023-10-13T00:25:38;7.80;99.90
10282;DHT22;5186;59.472;18.048;2023-10-13T00:28:18;7.80;99.90
10282;DHT22;5186;59.472;18.048;2023-10-13T00:30:49;7.80;99.90
10282;DHT22;5186;59.472;18.048;2023-10-13T00:33:17;7.80;99.90
10282;DHT22;5186;59.472;18.048;2023-10-13T00:35:45;7.70;99.90
10282;DHT22;5186;59.472;18.048;2023-10-13T00:38:13;7.70;99.90
10282;DHT22;5186;59.472;18.048;2023-10-13T00:40:41;7.60;99.90
10282;DHT22;5186;59.472;18.048;2023-10-13T00:43:09;7.50;99.90
10282;DHT22;5186;59.472;18.048;2023-10-13T00:45:51;7.40;99.90
10282;DHT22;5186;59.472;18.048;2023-10-13T00:48:28;7.30;99.90
10282;DHT22;5186;59.472;18.048;2023-10-13T00:50:58;7.20;99.90
10282;DHT22;5186;59.472;18.048;2023-10-13T00:53:31;7.10;99.90
10282;DHT22;5186;59.472;18.048;2023-10-13T00:56:03;7.00;99.90
10282;DHT22;5186;59.472;18.048;2023-10-13T00:58:36;7.00;99.90
10282;DHT22;5186;59.472;18.048;2023-10-13T01:01:04;6.80;99.90
10282;DHT22;5186;59.472;18.048;2023-10-13T01:03:54;6.80;99.90
10282;DHT22;5186;59.472;18.048;2023-10-13T01:06:28;6.70;99.90
10282;DHT22;5186;59.472;18.048;2023-10-13T01:09:05;6.60;99.90
10282;DHT22;5186;59.472;18.048;2023-10-13T01:11:49;6.60;99.90
10282;DHT22;5186;59.472;18.048;2023-10-13T01:14:18;6.50;99.90
10282;DHT22;5186;59.472;18.048;2023-10-13T01:16:46;6.50;99.90
10282;DHT22;5186;59.472;18.048;2023-10-13T01:19:16;6.50;99.90
10282;DHT22;5186;59.472;18.048;2023-10-13T01:21:47;6.50;99.90
10282;DHT22;5186;59.472;18.048;2023-10-13T01:24:13;6.60;99.90
10282;DHT22;5186;59.472;18.048;2023-10-13T01:26:39;6.70;99.90
10282;DHT22;5186;59.472;18.048;2023-10-13T01:29:06;6.70;99.90
10282;DHT22;5186;59.472;18.048;2023-10-13T01:31:44;6.80;99.90
10282;DHT22;5186;59.472;18.048;2023-10-13T01:34:16;6.80;99.90
10282;DHT22;5186;59.472;18.048;2023-10-13T01:36:51;6.90;99.90
10282;DHT22;5186;59.472;18.048;2023-10-13T01:39:22;6.90;99.90
10282;DHT22;5186;59.472;18.048;2023-10-13T01:41:55;7.00;99.90
10282;DHT22;5186;59.472;18.048;2023-10-13T01:44:27;7.00;99.90
10282;DHT22;5186;59.472;18.048;2023-10-13T01:46:59;7.00;99.90
10282;DHT22;5186;59.472;18.048;2023-10-13T01:49:32;6.90;99.90
10282;DHT22;5186;59.472;18.048;2023-10-13T01:52:06;6.90;99.90
10282;DHT22;5186;59.472;18.048;2023-10-13T01:54:36;6.90;99.90
10282;DHT22;5186;59.472;18.048;2023-10-13T01:57:09;6.80;99.90
10282;DHT22;5186;59.472;18.048;2023-10-13T01:59:42;6.80;99.90
10282;DHT22;5186;59.472;18.048;2023-10-13T02:02:12;6.70;99.90
10282;DHT22;5186;59.472;18.048;2023-10-13T02:04:41;6.70;99.90
10282;DHT22;5186;59.472;18.048;2023-10-13T02:07:21;6.60;99.90
10282;DHT22;5186;59.472;18.048;2023-10-13T02:09:52;6.60;99.90
10282;DHT22;5186;59.472;18.048;2023-10-13T02:12:20;6.60;99.90
10282;DHT22;5186;59.472;18.048;2023-10-13T02:14:51;6.60;99.90
10282;DHT22;5186;59.472;18.048;2023-10-13T02:17:16;6.50;99.90
10282;DHT22;5186;59.472;18.048;2023-10-13T02:19:46;6.50;99.90
10282;DHT22;5186;59.472;18.048;2023-10-13T02:22:13;6.50;99.90
10282;DHT22;5186;59.472;18.048;2023-10-13T02:24:51;6.50;99.90
10282;DHT22;5186;59.472;18.048;2023-10-13T02:27:18;6.50;99.90
10282;DHT22;5186;59.472;18.048;2023-10-13T02:29:49;6.50;99.90
10282;DHT22;5186;59.472;18.048;2023-10-13T02:32:15;6.40;99.90
10282;DHT22;5186;59.472;18.048;2023-10-13T02:34:46;6.40;99.90
10282;DHT22;5186;59.472;18.048;2023-10-13T02:37:12;6.40;99.90
10282;DHT22;5186;59.472;18.048;2023-10-13T02:39:41;6.50;99.90
10282;DHT22;5186;59.472;18.048;2023-10-13T02:42:08;6.40;99.90
10282;DHT22;5186;59.472;18.048;2023-10-13T02:44:34;6.50;99.90
10282;DHT22;5186;59.472;18.048;2023-10-13T02:47:02;6.40;99.90
10282;DHT22;5186;59.472;18.048;2023-10-13T02:49:31;6.50;99.90
10282;DHT22;5186;59.472;18.048;2023-10-13T02:51:59;6.50;99.90
10282;DHT22;5186;59.472;18.048;2023-10-13T02:54:30;6.50;99.90
10282;DHT22;5186;59.472;18.048;2023-10-13T02:56:57;6.60;99.90
10282;DHT22;5186;59.472;18.048;2023-10-13T02:59:30;6.60;99.90
10282;DHT22;5186;59.472;18.048;2023-10-13T03:02:06;6.60;99.90
10282;DHT22;5186;59.472;18.048;2023-10-13T03:04:57;6.60;99.90
10282;DHT22;5186;59.472;18.048;2023-10-13T03:07:34;6.60;99.90
10282;DHT22;5186;59.472;18.048;2023-10-13T03:10:02;6.60;99.90
10282;DHT22;5186;59.472;18.048;2023-10-13T03:12:38;6.60;99.90
10282;DHT22;5186;59.472;18.048;2023-10-13T03:15:04;6.60;99.90
10282;DHT22;5186;59.472;18.048;2023-10-13T03:17:44;6.70;99.90
10282;DHT22;5186;59.472;18.048;2023-10-13T03:20:11;6.70;99.90
10282;DHT22;5186;59.472;18.048;2023-10-13T03:22:38;6.70;99.90
10282;DHT22;5186;59.472;18.048;2023-10-13T03:25:04;6.70;99.90
10282;DHT22;5186;59.472;18.048;2023-10-13T03:27:38;6.70;99.90
10282;DHT22;5186;59.472;18.048;2023-10-13T03:30:33;6.70;99.90
10282;DHT22;5186;59.472;18.048;2023-10-13T03:33:07;6.70;99.90
10282;DHT22;5186;59.472;18.048;2023-10-13T03:35:35;6.70;99.90
10282;DHT22;5186;59.472;18.048;2023-10-13T03:38:08;6.70;99.90
10282;DHT22;5186;59.472;18.048;2023-10-13T03:40:43;6.70;99.90
10282;DHT22;5186;59.472;18.048;2023-10-13T03:43:14;6.70;99.90
10282;DHT22;5186;59.472;18.048;2023-10-13T03:45:44;6.60;99.90
10282;DHT22;5186;59.472;18.048;2023-10-13T03:48:15;6.60;99.90
10282;DHT22;5186;59.472;18.048;2023-10-13T03:50:50;6.60;99.90
10282;DHT22;5186;59.472;18.048;2023-10-13T03:53:27;6.60;99.90
10282;DHT22;5186;59.472;18.048;2023-10-13T03:56:05;6.60;99.90
10282;DHT22;5186;59.472;18.048;2023-10-13T03:58:37;6.60;99.90
10282;DHT22;5186;59.472;18.048;2023-10-13T04:01:11;6.50;99.90
10282;DHT22;5186;59.472;18.048;2023-10-13T04:03:40;6.40;99.90
10282;DHT22;5186;59.472;18.048;2023-10-13T04:06:23;6.30;99.90
10282;DHT22;5186;59.472;18.048;2023-10-13T04:09:09;6.20;99.90
10282;DHT22;5186;59.472;18.048;2023-10-13T04:11:53;6.10;99.90
10282;DHT22;5186;59.472;18.048;2023-10-13T04:14:29;6.00;99.90
10282;DHT22;5186;59.472;18.048;2023-10-13T04:17:13;5.90;99.90
10282;DHT22;5186;59.472;18.048;2023-10-13T04:19:48;5.80;99.90
10282;DHT22;5186;59.472;18.048;2023-10-13T04:22:36;5.70;99.90
10282;DHT22;5186;59.472;18.048;2023-10-13T04:25:28;5.70;99.90
10282;DHT22;5186;59.472;18.048;2023-10-13T04:28:08;5.60;99.90
10282;DHT22;5186;59.472;18.048;2023-10-13T04:33:32;5.50;99.90
10282;DHT22;5186;59.472;18.048;2023-10-13T04:36:07;5.40;99.90
10282;DHT22;5186;59.472;18.048;2023-10-13T04:38:45;5.30;99.90
10282;DHT22;5186;59.472;18.048;2023-10-13T04:41:38;5.20;99.90
10282;DHT22;5186;59.472;18.048;2023-10-13T04:44:05;5.20;99.90
10282;DHT22;5186;59.472;18.048;2023-10-13T04:46:51;5.10;99.90
10282;DHT22;5186;59.472;18.048;2023-10-13T04:49:22;5.00;99.90
10282;DHT22;5186;59.472;18.048;2023-10-13T04:52:04;5.00;99.90
10282;DHT22;5186;59.472;18.048;2023-10-13T04:54:38;4.90;99.90
10282;DHT22;5186;59.472;18.048;2023-10-13T04:57:14;4.90;99.90
10282;DHT22;5186;59.472;18.048;2023-10-13T04:59:59;4.90;99.90
10282;DHT22;5186;59.472;18.048;2023-10-13T05:02:41;4.80;99.90
10282;DHT22;5186;59.472;18.048;2023-10-13T05:05:20;4.80;99.90
10282;DHT22;5186;59.472;18.048;2023-10-13T05:08:09;4.80;99.90
10282;DHT22;5186;59.472;18.048;2023-10-13T05:10:53;4.80;99.90
10282;DHT22;5186;59.472;18.048;2023-10-13T05:13:37;4.70;99.90
10282;DHT22;5186;59.472;18.048;2023-10-13T05:16:21;4.70;99.90
10282;DHT22;5186;59.472;18.048;2023-10-13T05:19:05;4.60;99.90
10282;DHT22;5186;59.472;18.048;2023-10-13T05:21:49;4.60;99.90
10282;DHT22;5186;59.472;18.048;2023-10-13T05:24:33;4.60;99.90
10282;DHT22;5186;59.472;18.048;2023-10-13T05:27:17;4.60;99.90
10282;DHT22;5186;59.472;18.048;2023-10-13T05:30:02;4.50;99.90
10282;DHT22;5186;59.472;18.048;2023-10-13T05:32:46;4.40;99.90
10282;DHT22;5186;59.472;18.048;2023-10-13T05:35:31;4.40;99.90
10282;DHT22;5186;59.472;18.048;2023-10-13T05:38:15;4.40;99.90
10282;DHT22;5186;59.472;18.048;2023-10-13T05:41:04;4.40;99.90
10282;DHT22;5186;59.472;18.048;2023-10-13T05:43:48;4.40;99.90
10282;DHT22;5186;59.472;18.048;2023-10-13T05:46:33;4.40;99.90
10282;DHT22;5186;59.472;18.048;2023-10-13T05:49:06;4.40;99.90
10282;DHT22;5186;59.472;18.048;2023-10-13T05:51:32;4.40;99.90
10282;DHT22;5186;59.472;18.048;2023-10-13T05:54:04;4.40;99.90
10282;DHT22;5186;59.472;18.048;2023-10-13T05:56:46;4.40;99.90
10282;DHT22;5186;59.472;18.048;2023-10-13T05:59:32;4.40;99.90
10282;DHT22;5186;59.472;18.048;2023-10-13T06:02:18;4.40;99.90
10282;DHT22;5186;59.472;18.048;2023-10-13T06:05:05;4.40;99.90
10282;DHT22;5186;59.472;18.048;2023-10-13T06:07:50;4.30;99.90
10282;DHT22;5186;59.472;18.048;2023-10-13T06:10:35;4.30;99.90
10282;DHT22;5186;59.472;18.048;2023-10-13T06:13:19;4.30;99.90
10282;DHT22;5186;59.472;18.048;2023-10-13T06:18:51;4.30;99.90
10282;DHT22;5186;59.472;18.048;2023-10-13T06:21:35;4.40;99.90
10282;DHT22;5186;59.472;18.048;2023-10-13T06:24:19;4.40;99.90
10282;DHT22;5186;59.472;18.048;2023-10-13T06:27:03;4.50;99.90
10282;DHT22;5186;59.472;18.048;2023-10-13T06:29:47;4.50;99.90
10282;DHT22;5186;59.472;18.048;2023-10-13T06:32:13;4.60;99.90
10282;DHT22;5186;59.472;18.048;2023-10-13T06:34:44;4.70;99.90
10282;DHT22;5186;59.472;18.048;2023-10-13T06:37:13;4.80;99.90
10282;DHT22;5186;59.472;18.048;2023-10-13T06:39:56;4.90;99.90
10282;DHT22;5186;59.472;18.048;2023-10-13T06:42:23;5.00;99.90
10282;DHT22;5186;59.472;18.048;2023-10-13T06:44:55;5.10;99.90
10282;DHT22;5186;59.472;18.048;2023-10-13T06:47:22;5.20;99.90
10282;DHT22;5186;59.472;18.048;2023-10-13T06:49:48;5.30;99.90
10282;DHT22;5186;59.472;18.048;2023-10-13T06:52:17;5.30;99.90
10282;DHT22;5186;59.472;18.048;2023-10-13T06:54:43;5.50;99.90
10282;DHT22;5186;59.472;18.048;2023-10-13T06:57:09;5.50;99.90
10282;DHT22;5186;59.472;18.048;2023-10-13T06:59:46;5.50;99.90
10282;DHT22;5186;59.472;18.048;2023-10-13T07:02:12;5.60;99.90
10282;DHT22;5186;59.472;18.048;2023-10-13T07:04:50;5.70;99.90
10282;DHT22;5186;59.472;18.048;2023-10-13T07:07:38;5.80;99.90
10282;DHT22;5186;59.472;18.048;2023-10-13T07:10:08;5.90;99.90
10282;DHT22;5186;59.472;18.048;2023-10-13T07:12:34;6.00;99.90
10282;DHT22;5186;59.472;18.048;2023-10-13T07:14:59;6.10;99.90
10282;DHT22;5186;59.472;18.048;2023-10-13T07:17:36;6.20;99.90
10282;DHT22;5186;59.472;18.048;2023-10-13T07:20:06;6.30;99.90
10282;DHT22;5186;59.472;18.048;2023-10-13T07:22:41;6.40;99.90
10282;DHT22;5186;59.472;18.048;2023-10-13T07:25:11;6.60;99.90
10282;DHT22;5186;59.472;18.048;2023-10-13T07:27:43;6.70;99.90
10282;DHT22;5186;59.472;18.048;2023-10-13T07:30:09;6.80;99.90
10282;DHT22;5186;59.472;18.048;2023-10-13T07:32:38;6.90;99.90
10282;DHT22;5186;59.472;18.048;2023-10-13T07:35:17;7.00;99.90
10282;DHT22;5186;59.472;18.048;2023-10-13T07:37:46;7.10;99.90
10282;DHT22;5186;59.472;18.048;2023-10-13T07:40:14;7.10;99.90
10282;DHT22;5186;59.472;18.048;2023-10-13T07:42:49;7.30;99.90
10282;DHT22;5186;59.472;18.048;2023-10-13T07:45:14;7.30;99.90
10282;DHT22;5186;59.472;18.048;2023-10-13T07:47:43;7.40;99.90
10282;DHT22;5186;59.472;18.048;2023-10-13T07:50:09;7.50;99.90
10282;DHT22;5186;59.472;18.048;2023-10-13T07:52:35;7.50;99.90
10282;DHT22;5186;59.472;18.048;2023-10-13T07:55:06;7.60;99.90
10282;DHT22;5186;59.472;18.048;2023-10-13T07:57:45;7.70;99.90
10282;DHT22;5186;59.472;18.048;2023-10-13T08:00:21;7.70;99.90
10282;DHT22;5186;59.472;18.048;2023-10-13T08:03:05;7.80;99.90
10282;DHT22;5186;59.472;18.048;2023-10-13T08:05:40;7.90;99.90
10282;DHT22;5186;59.472;18.048;2023-10-13T08:08:23;8.00;99.90
10282;DHT22;5186;59.472;18.048;2023-10-13T08:10:52;8.00;99.90
10282;DHT22;5186;59.472;18.048;2023-10-13T08:13:21;8.10;99.90
10282;DHT22;5186;59.472;18.048;2023-10-13T08:15:47;8.10;99.90
10282;DHT22;5186;59.472;18.048;2023-10-13T08:18:16;8.20;99.90
10282;DHT22;5186;59.472;18.048;2023-10-13T08:21:02;8.30;99.90
10282;DHT22;5186;59.472;18.048;2023-10-13T08:23:31;8.30;99.90
10282;DHT22;5186;59.472;18.048;2023-10-13T08:26:16;8.40;99.90
10282;DHT22;5186;59.472;18.048;2023-10-13T08:29:00;8.40;99.90
10282;DHT22;5186;59.472;18.048;2023-10-13T08:31:49;8.50;99.90
10282;DHT22;5186;59.472;18.048;2023-10-13T08:34:30;8.50;99.90
10282;DHT22;5186;59.472;18.048;2023-10-13T08:37:07;8.60;99.90
10282;DHT22;5186;59.472;18.048;2023-10-13T08:40:00;8.60;99.90
10282;DHT22;5186;59.472;18.048;2023-10-13T08:45:16;8.70;99.90
10282;DHT22;5186;59.472;18.048;2023-10-13T08:48:00;8.80;99.90
10282;DHT22;5186;59.472;18.048;2023-10-13T08:50:43;8.90;99.90
10282;DHT22;5186;59.472;18.048;2023-10-13T08:53:18;8.90;99.90
10282;DHT22;5186;59.472;18.048;2023-10-13T08:56:00;9.00;99.90
10282;DHT22;5186;59.472;18.048;2023-10-13T08:58:41;9.00;99.90
10282;DHT22;5186;59.472;18.048;2023-10-13T09:01:26;9.10;99.90
10282;DHT22;5186;59.472;18.048;2023-10-13T09:04:12;9.10;99.90
10282;DHT22;5186;59.472;18.048;2023-10-13T09:06:55;9.20;99.90
10282;DHT22;5186;59.472;18.048;2023-10-13T09:09:31;9.20;99.90
10282;DHT22;5186;59.472;18.048;2023-10-13T09:12:10;9.30;99.90
10282;DHT22;5186;59.472;18.048;2023-10-13T09:14:37;9.30;99.90
10282;DHT22;5186;59.472;18.048;2023-10-13T09:17:23;9.40;99.90
10282;DHT22;5186;59.472;18.048;2023-10-13T09:20:08;9.50;99.90
10282;DHT22;5186;59.472;18.048;2023-10-13T09:22:51;9.50;99.90
10282;DHT22;5186;59.472;18.048;2023-10-13T09:25:29;9.60;99.90
10282;DHT22;5186;59.472;18.048;2023-10-13T09:28:03;9.60;99.90
10282;DHT22;5186;59.472;18.048;2023-10-13T09:30:52;9.70;99.90
10282;DHT22;5186;59.472;18.048;2023-10-13T09:33:26;9.70;99.90
10282;DHT22;5186;59.472;18.048;2023-10-13T09:35:58;9.90;99.90
10282;DHT22;5186;59.472;18.048;2023-10-13T09:38:26;9.90;99.90
10282;DHT22;5186;59.472;18.048;2023-10-13T09:40:53;9.90;99.90
10282;DHT22;5186;59.472;18.048;2023-10-13T09:43:26;9.90;99.90
10282;DHT22;5186;59.472;18.048;2023-10-13T09:46:01;10.00;99.90
10282;DHT22;5186;59.472;18.048;2023-10-13T09:48:36;10.10;99.90
10282;DHT22;5186;59.472;18.048;2023-10-13T09:51:04;10.10;99.90
10282;DHT22;5186;59.472;18.048;2023-10-13T09:53:35;10.20;99.90
10282;DHT22;5186;59.472;18.048;2023-10-13T09:58:58;10.30;99.90
10282;DHT22;5186;59.472;18.048;2023-10-13T10:01:27;10.40;99.90
10282;DHT22;5186;59.472;18.048;2023-10-13T10:04:09;10.40;99.90
10282;DHT22;5186;59.472;18.048;2023-10-13T10:06:58;10.50;99.90
10282;DHT22;5186;59.472;18.048;2023-10-13T10:09:29;10.50;99.90
10282;DHT22;5186;59.472;18.048;2023-10-13T10:17:11;10.60;99.90
10282;DHT22;5186;59.472;18.048;2023-10-13T10:19:54;10.70;99.90
10282;DHT22;5186;59.472;18.048;2023-10-13T10:22:28;10.70;99.90
10282;DHT22;5186;59.472;18.048;2023-10-13T10:25:14;10.80;99.90
10282;DHT22;5186;59.472;18.048;2023-10-13T10:27:56;10.80;99.90
10282;DHT22;5186;59.472;18.048;2023-10-13T10:30:29;10.90;99.90
10282;DHT22;5186;59.472;18.048;2023-10-13T10:32:58;10.90;99.90
10282;DHT22;5186;59.472;18.048;2023-10-13T10:35:25;10.90;99.90
10282;DHT22;5186;59.472;18.048;2023-10-13T10:38:07;10.90;99.90
10282;DHT22;5186;59.472;18.048;2023-10-13T10:40:51;11.00;99.90
10282;DHT22;5186;59.472;18.048;2023-10-13T10:43:26;11.00;99.90
10282;DHT22;5186;59.472;18.048;2023-10-13T10:45:52;11.10;99.90
10282;DHT22;5186;59.472;18.048;2023-10-13T10:48:18;11.10;99.90
10282;DHT22;5186;59.472;18.048;2023-10-13T10:50:56;11.20;99.90
10282;DHT22;5186;59.472;18.048;2023-10-13T10:53:24;11.20;99.90
10282;DHT22;5186;59.472;18.048;2023-10-13T10:56:05;11.20;99.90
10282;DHT22;5186;59.472;18.048;2023-10-13T10:58:34;11.20;99.90
10282;DHT22;5186;59.472;18.048;2023-10-13T11:01:09;11.30;99.90
10282;DHT22;5186;59.472;18.048;2023-10-13T11:03:56;11.30;99.90
10282;DHT22;5186;59.472;18.048;2023-10-13T11:06:26;11.40;99.90
10282;DHT22;5186;59.472;18.048;2023-10-13T11:09:03;11.40;99.90
10282;DHT22;5186;59.472;18.048;2023-10-13T11:11:30;11.40;99.90
10282;DHT22;5186;59.472;18.048;2023-10-13T11:14:01;11.40;99.90
10282;DHT22;5186;59.472;18.048;2023-10-13T11:16:46;11.40;99.90
10282;DHT22;5186;59.472;18.048;2023-10-13T11:22:10;11.40;99.90
10282;DHT22;5186;59.472;18.048;2023-10-13T11:24:40;11.40;99.90
10282;DHT22;5186;59.472;18.048;2023-10-13T11:27:15;11.50;99.90
10282;DHT22;5186;59.472;18.048;2023-10-13T11:29:46;11.50;99.90
10282;DHT22;5186;59.472;18.048;2023-10-13T11:32:17;11.60;99.90
10282;DHT22;5186;59.472;18.048;2023-10-13T11:34:46;11.50;99.90
10282;DHT22;5186;59.472;18.048;2023-10-13T11:37:17;11.60;99.90
10282;DHT22;5186;59.472;18.048;2023-10-13T11:40:04;11.60;99.90
10282;DHT22;5186;59.472;18.048;2023-10-13T11:42:35;11.60;99.90
10282;DHT22;5186;59.472;18.048;2023-10-13T11:45:01;11.70;99.90
10282;DHT22;5186;59.472;18.048;2023-10-13T11:47:46;11.70;99.90
10282;DHT22;5186;59.472;18.048;2023-10-13T11:50:24;11.70;99.90
10282;DHT22;5186;59.472;18.048;2023-10-13T11:52:58;11.70;99.90
10282;DHT22;5186;59.472;18.048;2023-10-13T11:55:24;11.80;99.90
10282;DHT22;5186;59.472;18.048;2023-10-13T11:57:50;11.80;99.90
10282;DHT22;5186;59.472;18.048;2023-10-13T12:00:16;11.80;99.90
10282;DHT22;5186;59.472;18.048;2023-10-13T12:02:51;11.80;99.90
10282;DHT22;5186;59.472;18.048;2023-10-13T12:05:36;11.80;99.90
10282;DHT22;5186;59.472;18.048;2023-10-13T12:08:15;11.80;99.90
10282;DHT22;5186;59.472;18.048;2023-10-13T12:10:48;11.80;99.90
10282;DHT22;5186;59.472;18.048;2023-10-13T12:13:25;11.90;99.90
10282;DHT22;5186;59.472;18.048;2023-10-13T12:15:51;11.90;99.90
10282;DHT22;5186;59.472;18.048;2023-10-13T12:18:17;11.90;99.90
10282;DHT22;5186;59.472;18.048;2023-10-13T12:20:44;12.00;99.90
10282;DHT22;5186;59.472;18.048;2023-10-13T12:23:14;12.00;99.90
10282;DHT22;5186;59.472;18.048;2023-10-13T12:25:45;12.00;99.90
10282;DHT22;5186;59.472;18.048;2023-10-13T12:28:21;12.00;99.90
10282;DHT22;5186;59.472;18.048;2023-10-13T12:30:49;12.10;99.90
10282;DHT22;5186;59.472;18.048;2023-10-13T12:33:15;12.10;99.90
10282;DHT22;5186;59.472;18.048;2023-10-13T12:35:56;12.10;99.90
10282;DHT22;5186;59.472;18.048;2023-10-13T12:38:40;12.10;99.90
10282;DHT22;5186;59.472;18.048;2023-10-13T12:41:11;12.10;99.90
10282;DHT22;5186;59.472;18.048;2023-10-13T12:43:56;12.10;99.90
10282;DHT22;5186;59.472;18.048;2023-10-13T12:46:40;12.10;99.90
10282;DHT22;5186;59.472;18.048;2023-10-13T12:49:24;12.10;99.90
10282;DHT22;5186;59.472;18.048;2023-10-13T12:52:08;12.10;99.90
10282;DHT22;5186;59.472;18.048;2023-10-13T12:54:51;12.10;99.90
10282;DHT22;5186;59.472;18.048;2023-10-13T12:57:40;12.20;99.90
10282;DHT22;5186;59.472;18.048;2023-10-13T13:00:11;12.20;99.90
10282;DHT22;5186;59.472;18.048;2023-10-13T13:02:46;12.20;99.90
10282;DHT22;5186;59.472;18.048;2023-10-13T13:05:12;12.20;99.90
10282;DHT22;5186;59.472;18.048;2023-10-13T13:07:41;12.20;99.90
10282;DHT22;5186;59.472;18.048;2023-10-13T13:10:13;12.20;99.90
10282;DHT22;5186;59.472;18.048;2023-10-13T13:12:42;12.20;99.90
10282;DHT22;5186;59.472;18.048;2023-10-13T13:15:08;12.20;99.90
10282;DHT22;5186;59.472;18.048;2023-10-13T13:17:35;12.20;99.90
10282;DHT22;5186;59.472;18.048;2023-10-13T13:20:01;12.20;99.90
10282;DHT22;5186;59.472;18.048;2023-10-13T13:22:36;12.10;99.90
10282;DHT22;5186;59.472;18.048;2023-10-13T13:25:01;12.20;99.90
10282;DHT22;5186;59.472;18.048;2023-10-13T13:27:27;12.10;99.90
10282;DHT22;5186;59.472;18.048;2023-10-13T13:29:52;12.10;99.90
10282;DHT22;5186;59.472;18.048;2023-10-13T13:32:18;12.00;99.90
10282;DHT22;5186;59.472;18.048;2023-10-13T13:34:50;12.00;99.90
10282;DHT22;5186;59.472;18.048;2023-10-13T13:37:39;12.10;99.90
10282;DHT22;5186;59.472;18.048;2023-10-13T13:40:05;12.10;99.90
10282;DHT22;5186;59.472;18.048;2023-10-13T13:42:44;12.00;99.90
10282;DHT22;5186;59.472;18.048;2023-10-13T13:45:17;11.90;99.90
10282;DHT22;5186;59.472;18.048;2023-10-13T13:47:55;11.90;99.90
10282;DHT22;5186;59.472;18.048;2023-10-13T13:50:21;11.90;99.90
10282;DHT22;5186;59.472;18.048;2023-10-13T13:52:53;11.90;99.90
10282;DHT22;5186;59.472;18.048;2023-10-13T13:55:22;11.90;99.90
10282;DHT22;5186;59.472;18.048;2023-10-13T13:57:49;11.70;99.90
10282;DHT22;5186;59.472;18.048;2023-10-13T14:00:16;11.80;99.90
10282;DHT22;5186;59.472;18.048;2023-10-13T14:02:43;11.80;99.90
10282;DHT22;5186;59.472;18.048;2023-10-13T14:05:15;11.80;99.90
10282;DHT22;5186;59.472;18.048;2023-10-13T14:07:43;11.80;99.90
10282;DHT22;5186;59.472;18.048;2023-10-13T14:10:08;11.70;99.90
10282;DHT22;5186;59.472;18.048;2023-10-13T14:12:41;11.70;99.90
10282;DHT22;5186;59.472;18.048;2023-10-13T14:15:10;11.70;99.90
10282;DHT22;5186;59.472;18.048;2023-10-13T14:17:49;11.70;99.90
10282;DHT22;5186;59.472;18.048;2023-10-13T14:20:15;11.70;99.90
10282;DHT22;5186;59.472;18.048;2023-10-13T14:22:45;11.60;99.90
10282;DHT22;5186;59.472;18.048;2023-10-13T14:25:13;11.70;99.90
10282;DHT22;5186;59.472;18.048;2023-10-13T14:27:41;11.60;99.90
10282;DHT22;5186;59.472;18.048;2023-10-13T14:30:07;11.70;99.90
10282;DHT22;5186;59.472;18.048;2023-10-13T14:32:33;11.60;99.90
10282;DHT22;5186;59.472;18.048;2023-10-13T14:35:06;11.60;99.90
10282;DHT22;5186;59.472;18.048;2023-10-13T14:37:40;11.70;99.90
10282;DHT22;5186;59.472;18.048;2023-10-13T14:40:06;11.70;99.90
10282;DHT22;5186;59.472;18.048;2023-10-13T14:42:38;11.60;99.90
10282;DHT22;5186;59.472;18.048;2023-10-13T14:45:06;11.60;99.90
10282;DHT22;5186;59.472;18.048;2023-10-13T14:47:52;11.60;99.90
10282;DHT22;5186;59.472;18.048;2023-10-13T14:50:18;11.60;99.90
10282;DHT22;5186;59.472;18.048;2023-10-13T14:52:47;11.50;99.90
10282;DHT22;5186;59.472;18.048;2023-10-13T14:55:14;11.60;99.90
10282;DHT22;5186;59.472;18.048;2023-10-13T14:57:47;11.50;99.90
10282;DHT22;5186;59.472;18.048;2023-10-13T15:00:13;11.40;99.90
10282;DHT22;5186;59.472;18.048;2023-10-13T15:02:40;11.40;99.90
10282;DHT22;5186;59.472;18.048;2023-10-13T15:05:09;11.50;99.90
10282;DHT22;5186;59.472;18.048;2023-10-13T15:07:44;11.50;99.90
10282;DHT22;5186;59.472;18.048;2023-10-13T15:10:12;11.50;99.90
10282;DHT22;5186;59.472;18.048;2023-10-13T15:12:40;11.50;99.90
10282;DHT22;5186;59.472;18.048;2023-10-13T15:15:07;11.50;99.90
10282;DHT22;5186;59.472;18.048;2023-10-13T15:17:42;11.40;99.90
10282;DHT22;5186;59.472;18.048;2023-10-13T15:20:08;11.40;99.90
10282;DHT22;5186;59.472;18.048;2023-10-13T15:22:36;11.40;99.90
10282;DHT22;5186;59.472;18.048;2023-10-13T15:25:04;11.40;99.90
10282;DHT22;5186;59.472;18.048;2023-10-13T15:27:48;11.40;99.90
10282;DHT22;5186;59.472;18.048;2023-10-13T15:30:23;11.30;99.90
10282;DHT22;5186;59.472;18.048;2023-10-13T15:32:56;11.30;99.90
10282;DHT22;5186;59.472;18.048;2023-10-13T15:35:23;11.30;99.90
10282;DHT22;5186;59.472;18.048;2023-10-13T15:37:54;11.30;99.90
10282;DHT22;5186;59.472;18.048;2023-10-13T15:40:20;11.30;99.90
10282;DHT22;5186;59.472;18.048;2023-10-13T15:42:46;11.20;99.90
10282;DHT22;5186;59.472;18.048;2023-10-13T15:45:13;11.20;99.90
10282;DHT22;5186;59.472;18.048;2023-10-13T15:47:43;11.10;99.90
10282;DHT22;5186;59.472;18.048;2023-10-13T15:50:12;11.10;99.90
10282;DHT22;5186;59.472;18.048;2023-10-13T15:52:44;11.10;99.90
10282;DHT22;5186;59.472;18.048;2023-10-13T15:55:12;11.10;99.90
10282;DHT22;5186;59.472;18.048;2023-10-13T15:57:39;11.10;99.90
10282;DHT22;5186;59.472;18.048;2023-10-13T16:00:05;11.10;99.90
10282;DHT22;5186;59.472;18.048;2023-10-13T16:02:52;11.00;99.90
10282;DHT22;5186;59.472;18.048;2023-10-13T16:05:20;10.90;99.90
10282;DHT22;5186;59.472;18.048;2023-10-13T16:07:51;10.90;99.90
10282;DHT22;5186;59.472;18.048;2023-10-13T16:10:20;10.90;99.90
10282;DHT22;5186;59.472;18.048;2023-10-13T16:12:46;10.80;99.90
10282;DHT22;5186;59.472;18.048;2023-10-13T16:15:12;10.80;99.90
10282;DHT22;5186;59.472;18.048;2023-10-13T16:17:41;10.70;99.90
10282;DHT22;5186;59.472;18.048;2023-10-13T16:20:07;10.70;99.90
10282;DHT22;5186;59.472;18.048;2023-10-13T16:22:43;10.60;99.90
10282;DHT22;5186;59.472;18.048;2023-10-13T16:25:13;10.60;99.90
10282;DHT22;5186;59.472;18.048;2023-10-13T16:27:40;10.60;99.90
10282;DHT22;5186;59.472;18.048;2023-10-13T16:30:09;10.50;99.90
10282;DHT22;5186;59.472;18.048;2023-10-13T16:32:36;10.50;99.90
10282;DHT22;5186;59.472;18.048;2023-10-13T16:35:05;10.50;99.90
10282;DHT22;5186;59.472;18.048;2023-10-13T16:37:31;10.40;99.90
10282;DHT22;5186;59.472;18.048;2023-10-13T16:39:57;10.40;99.90